createdAt,value
2019-01-02T00:00:32.932Z,18.34
2019-01-02T00:01:33.651Z,18.32
2019-01-02T00:02:31.640Z,18.31
2019-01-02T00:03:32.874Z,18.31
2019-01-02T00:04:31.775Z,18.31
2019-01-02T00:05:31.695Z,18.31
2019-01-02T00:06:33.481Z,18.3
2019-01-02T00:07:32.234Z,18.3
2019-01-02T00:08:31.707Z,18.29
2019-01-02T00:09:33.502Z,18.29
2019-01-02T00:10:31.674Z,18.29
2019-01-02T00:11:31.756Z,18.29
2019-01-02T00:12:31.473Z,18.27
2019-01-02T00:13:31.297Z,18.26
2019-01-02T00:14:33.437Z,18.25
2019-01-02T00:15:32.392Z,18.26
2019-01-02T00:16:31.894Z,18.25
2019-01-02T00:17:33.355Z,18.24
2019-01-02T00:18:31.779Z,18.25
2019-01-02T00:19:31.795Z,18.24
2019-01-02T00:20:31.488Z,18.23
2019-01-02T00:21:32.078Z,18.23
2019-01-02T00:22:33.287Z,18.23
2019-01-02T00:23:31.704Z,18.23
2019-01-02T00:24:31.890Z,18.23
2019-01-02T00:25:33.207Z,18.22
2019-01-02T00:26:31.806Z,18.22
2019-01-02T00:27:31.534Z,18.21
2019-01-02T00:28:32.279Z,18.2
2019-01-02T00:29:31.774Z,18.2
2019-01-02T00:30:33.550Z,18.19
2019-01-02T00:31:31.536Z,18.17
2019-01-02T00:32:32.231Z,18.17
2019-01-02T00:33:33.777Z,18.18
2019-01-02T00:34:32.069Z,18.17
2019-01-02T00:35:33.688Z,18.17
2019-01-02T00:36:31.771Z,18.16
2019-01-02T00:37:31.482Z,18.15
2019-01-02T00:38:33.095Z,18.15
2019-01-02T00:39:31.464Z,18.13
2019-01-02T00:40:31.643Z,18.13
2019-01-02T00:41:31.595Z,18.13
2019-01-02T00:42:31.767Z,18.13
2019-01-02T00:43:33.234Z,18.14
2019-01-02T00:44:31.466Z,18.12
2019-01-02T00:45:31.985Z,18.12
2019-01-02T00:46:33.460Z,18.12
2019-01-02T00:47:31.508Z,18.11
2019-01-02T00:48:33.092Z,18.11
2019-01-02T00:49:31.690Z,18.1
2019-01-02T00:50:31.931Z,18.1
2019-01-02T00:51:33.395Z,18.1
2019-01-02T00:52:31.970Z,18.1
2019-01-02T00:53:32.461Z,18.1
2019-01-02T00:54:31.387Z,18.09
2019-01-02T00:55:31.393Z,18.08
2019-01-02T00:56:33.432Z,18.08
2019-01-02T00:57:31.413Z,18.07
2019-01-02T00:58:33.546Z,18.06
2019-01-02T00:59:31.605Z,18.06
2019-01-02T01:00:32.244Z,18.06
2019-01-02T01:01:32.851Z,18.06
2019-01-02T01:02:31.765Z,18.06
2019-01-02T01:03:33.582Z,18.05
2019-01-02T01:04:31.476Z,18.05
2019-01-02T01:05:31.917Z,18.05
2019-01-02T01:06:33.400Z,18.04
2019-01-02T01:07:31.818Z,18.04
2019-01-02T01:08:33.206Z,18.04
2019-01-02T01:09:31.433Z,18.04
2019-01-02T01:10:31.757Z,18.04
2019-01-02T01:11:33.333Z,18.04
2019-01-02T01:12:31.482Z,18.04
2019-01-02T01:13:33.657Z,18.03
2019-01-02T01:14:31.645Z,18.02
2019-01-02T01:15:31.732Z,18.02
2019-01-02T01:16:33.368Z,18.02
2019-01-02T01:17:31.460Z,18.01
2019-01-02T01:18:33.177Z,18.01
2019-01-02T01:19:31.725Z,18.01
2019-01-02T01:20:31.403Z,18
2019-01-02T01:21:33.302Z,18
2019-01-02T01:22:31.426Z,17.98
2019-01-02T01:23:31.603Z,17.98
2019-01-02T01:24:33.732Z,17.98
2019-01-02T01:25:31.949Z,17.98
2019-01-02T01:26:32.779Z,17.98
2019-01-02T01:27:33.240Z,17.98
2019-01-02T01:28:31.781Z,17.98
2019-01-02T01:29:31.591Z,17.96
2019-01-02T01:30:31.448Z,17.96
2019-01-02T01:31:32.415Z,17.96
2019-01-02T01:32:31.394Z,17.96
2019-01-02T01:33:31.750Z,17.95
2019-01-02T01:34:31.602Z,17.95
2019-01-02T01:35:31.899Z,17.95
2019-01-02T01:36:31.722Z,17.94
2019-01-02T01:37:32.193Z,17.94
2019-01-02T01:38:32.456Z,17.93
2019-01-02T01:39:31.627Z,17.93
2019-01-02T01:40:31.464Z,17.93
2019-01-02T01:41:34.263Z,17.93
2019-01-02T01:42:31.606Z,17.92
2019-01-02T01:43:31.673Z,17.92
2019-01-02T01:44:33.056Z,17.92
2019-01-02T01:45:31.377Z,17.92
2019-01-02T01:46:31.565Z,17.92
2019-01-02T01:47:32.462Z,17.92
2019-01-02T01:48:31.380Z,17.92
2019-01-02T01:49:31.691Z,17.9
2019-01-02T01:50:33.203Z,17.9
2019-01-02T01:51:32.725Z,17.9
2019-01-02T01:52:31.665Z,17.9
2019-01-02T01:53:31.595Z,17.9
2019-01-02T01:54:31.725Z,17.89
2019-01-02T01:55:33.955Z,17.89
2019-01-02T01:56:31.715Z,17.88
2019-01-02T01:57:31.776Z,17.87
2019-01-02T01:58:34.387Z,17.87
2019-01-02T01:59:31.404Z,17.86
2019-01-02T02:00:32.117Z,17.86
2019-01-02T02:01:33.690Z,17.86
2019-01-02T02:02:31.326Z,17.86
2019-01-02T02:03:32.013Z,17.86
2019-01-02T02:04:33.303Z,17.86
2019-01-02T02:05:31.669Z,17.85
2019-01-02T02:06:31.952Z,17.85
2019-01-02T02:07:33.427Z,17.85
2019-01-02T02:08:31.236Z,17.84
2019-01-02T02:09:31.773Z,17.84
2019-01-02T02:10:32.836Z,17.84
2019-01-02T02:11:31.449Z,17.85
2019-01-02T02:12:31.798Z,17.83
2019-01-02T02:13:31.371Z,17.83
2019-01-02T02:14:31.838Z,17.82
2019-01-02T02:15:32.327Z,17.82
2019-01-02T02:16:31.297Z,17.82
2019-01-02T02:17:31.400Z,17.81
2019-01-02T02:18:33.503Z,17.81
2019-01-02T02:19:31.648Z,17.81
2019-01-02T02:20:31.749Z,17.8
2019-01-02T02:21:33.321Z,17.8
2019-01-02T02:22:31.305Z,17.79
2019-01-02T02:23:32.306Z,17.79
2019-01-02T02:24:33.444Z,17.79
2019-01-02T02:25:32.001Z,17.79
2019-01-02T02:26:31.503Z,17.78
2019-01-02T02:27:33.261Z,17.79
2019-01-02T02:28:31.406Z,17.78
2019-01-02T02:29:31.631Z,17.77
2019-01-02T02:30:31.302Z,17.77
2019-01-02T02:31:33.213Z,17.78
2019-01-02T02:32:32.914Z,17.78
2019-01-02T02:33:33.408Z,17.77
2019-01-02T02:34:31.574Z,17.77
2019-01-02T02:35:33.626Z,17.77
2019-01-02T02:36:33.224Z,17.76
2019-01-02T02:37:31.428Z,17.76
2019-01-02T02:38:34.265Z,17.74
2019-01-02T02:39:33.245Z,17.73
2019-01-02T02:40:31.393Z,17.74
2019-01-02T02:41:34.285Z,17.74
2019-01-02T02:42:33.678Z,17.73
2019-01-02T02:43:31.435Z,17.73
2019-01-02T02:44:33.793Z,17.74
2019-01-02T02:45:33.289Z,17.74
2019-01-02T02:46:31.614Z,17.73
2019-01-02T02:47:32.994Z,17.73
2019-01-02T02:48:33.618Z,17.72
2019-01-02T02:49:31.754Z,17.71
2019-01-02T02:50:33.221Z,17.72
2019-01-02T02:51:33.537Z,17.7
2019-01-02T02:52:31.876Z,17.7
2019-01-02T02:53:33.141Z,17.71
2019-01-02T02:54:31.397Z,17.71
2019-01-02T02:55:33.361Z,17.7
2019-01-02T02:56:33.167Z,17.7
2019-01-02T02:57:31.364Z,17.68
2019-01-02T02:58:32.972Z,17.68
2019-01-02T02:59:33.592Z,17.69
2019-01-02T03:00:31.378Z,17.69
2019-01-02T03:01:33.407Z,17.68
2019-01-02T03:02:31.396Z,17.67
2019-01-02T03:03:31.407Z,17.67
2019-01-02T03:04:33.014Z,17.67
2019-01-02T03:05:31.393Z,17.67
2019-01-02T03:06:33.541Z,17.67
2019-01-02T03:07:33.547Z,17.66
2019-01-02T03:08:31.813Z,17.67
2019-01-02T03:09:31.773Z,17.67
2019-01-02T03:10:33.466Z,17.67
2019-01-02T03:11:32.118Z,17.66
2019-01-02T03:12:31.432Z,17.66
2019-01-02T03:13:33.388Z,17.64
2019-01-02T03:14:31.407Z,17.65
2019-01-02T03:15:33.911Z,17.66
2019-01-02T03:16:33.715Z,17.66
2019-01-02T03:17:32.860Z,17.64
2019-01-02T03:18:33.523Z,17.63
2019-01-02T03:19:33.650Z,17.63
2019-01-02T03:20:31.727Z,17.64
2019-01-02T03:21:32.830Z,17.63
2019-01-02T03:22:32.938Z,17.64
2019-01-02T03:23:31.463Z,17.63
2019-01-02T03:24:32.646Z,17.62
2019-01-02T03:25:33.368Z,17.62
2019-01-02T03:26:31.230Z,17.62
2019-01-02T03:27:33.791Z,17.62
2019-01-02T03:28:33.595Z,17.61
2019-01-02T03:29:33.601Z,17.61
2019-01-02T03:30:33.406Z,17.61
2019-01-02T03:31:33.104Z,17.61
2019-01-02T03:32:33.521Z,17.61
2019-01-02T03:33:31.543Z,17.61
2019-01-02T03:34:31.190Z,17.61
2019-01-02T03:35:31.623Z,17.61
2019-01-02T03:36:31.422Z,17.61
2019-01-02T03:37:31.842Z,17.6
2019-01-02T03:38:31.352Z,17.61
2019-01-02T03:39:31.419Z,17.6
2019-01-02T03:40:31.364Z,17.6
2019-01-02T03:41:31.665Z,17.59
2019-01-02T03:42:32.148Z,17.59
2019-01-02T03:43:31.265Z,17.59
2019-01-02T03:44:31.707Z,17.58
2019-01-02T03:45:31.478Z,17.58
2019-01-02T03:46:31.452Z,17.57
2019-01-02T03:47:31.426Z,17.58
2019-01-02T03:48:31.417Z,17.57
2019-01-02T03:49:31.338Z,17.56
2019-01-02T03:50:31.548Z,17.56
2019-01-02T03:51:31.311Z,17.55
2019-01-02T03:52:31.513Z,17.55
2019-01-02T03:53:31.564Z,17.55
2019-01-02T03:54:31.641Z,17.55
2019-01-02T03:55:31.749Z,17.56
2019-01-02T03:56:31.257Z,17.54
2019-01-02T03:57:31.402Z,17.54
2019-01-02T03:58:31.289Z,17.54
2019-01-02T03:59:31.347Z,17.54
2019-01-02T04:00:31.172Z,17.55
2019-01-02T04:01:31.599Z,17.54
2019-01-02T04:02:31.730Z,17.54
2019-01-02T04:03:31.467Z,17.54
2019-01-02T04:04:31.283Z,17.54
2019-01-02T04:05:31.540Z,17.54
2019-01-02T04:06:31.751Z,17.54
2019-01-02T04:07:31.248Z,17.54
2019-01-02T04:08:31.607Z,17.53
2019-01-02T04:09:31.449Z,17.53
2019-01-02T04:10:31.460Z,17.53
2019-01-02T04:11:31.400Z,17.52
2019-01-02T04:12:31.458Z,17.52
2019-01-02T04:13:31.509Z,17.52
2019-01-02T04:14:31.761Z,17.52
2019-01-02T04:15:31.322Z,17.51
2019-01-02T04:16:31.614Z,17.51
2019-01-02T04:17:31.322Z,17.5
2019-01-02T04:18:31.717Z,17.5
2019-01-02T04:19:32.288Z,17.5
2019-01-02T04:20:31.552Z,17.5
2019-01-02T04:21:31.757Z,17.49
2019-01-02T04:22:31.357Z,17.5
2019-01-02T04:23:31.305Z,17.49
2019-01-02T04:24:31.608Z,17.48
2019-01-02T04:25:31.731Z,17.48
2019-01-02T04:26:31.297Z,17.48
2019-01-02T04:27:31.452Z,17.48
2019-01-02T04:28:31.689Z,17.48
2019-01-02T04:29:31.379Z,17.48
2019-01-02T04:30:31.607Z,17.47
2019-01-02T04:31:31.336Z,17.47
2019-01-02T04:32:31.322Z,17.47
2019-01-02T04:33:31.690Z,17.47
2019-01-02T04:34:31.354Z,17.47
2019-01-02T04:35:31.667Z,17.46
2019-01-02T04:36:31.319Z,17.46
2019-01-02T04:37:31.374Z,17.47
2019-01-02T04:38:31.710Z,17.46
2019-01-02T04:39:31.286Z,17.46
2019-01-02T04:40:31.580Z,17.47
2019-01-02T04:41:31.783Z,17.47
2019-01-02T04:42:31.820Z,17.47
2019-01-02T04:43:31.420Z,17.47
2019-01-02T04:44:31.242Z,17.48
2019-01-02T04:45:31.414Z,17.48
2019-01-02T04:46:31.603Z,17.48
2019-01-02T04:47:31.387Z,17.49
2019-01-02T04:48:31.376Z,17.5
2019-01-02T04:49:31.523Z,17.5
2019-01-02T04:50:31.545Z,17.5
2019-01-02T04:51:31.458Z,17.51
2019-01-02T04:52:31.473Z,17.52
2019-01-02T04:53:31.803Z,17.54
2019-01-02T04:54:31.728Z,17.55
2019-01-02T04:55:31.682Z,17.56
2019-01-02T04:56:31.301Z,17.57
2019-01-02T04:57:31.630Z,17.59
2019-01-02T04:58:31.395Z,17.61
2019-01-02T04:59:31.329Z,17.62
2019-01-02T05:00:31.484Z,17.63
2019-01-02T05:01:31.624Z,17.64
2019-01-02T05:02:31.858Z,17.66
2019-01-02T05:03:31.230Z,17.67
2019-01-02T05:04:31.790Z,17.68
2019-01-02T05:05:32.165Z,17.71
2019-01-02T05:06:31.343Z,17.72
2019-01-02T05:07:31.594Z,17.73
2019-01-02T05:08:32.223Z,17.76
2019-01-02T05:09:31.374Z,17.78
2019-01-02T05:10:31.464Z,17.79
2019-01-02T05:11:31.916Z,17.81
2019-01-02T05:12:31.649Z,17.84
2019-01-02T05:13:31.236Z,17.84
2019-01-02T05:14:31.619Z,17.86
2019-01-02T05:15:31.637Z,17.89
2019-01-02T05:16:31.149Z,17.89
2019-01-02T05:17:31.368Z,17.92
2019-01-02T05:18:31.729Z,17.94
2019-01-02T05:19:31.687Z,17.97
2019-01-02T05:20:31.450Z,17.98
2019-01-02T05:21:31.413Z,17.99
2019-01-02T05:22:31.363Z,18.03
2019-01-02T05:23:31.726Z,18.04
2019-01-02T05:24:31.953Z,18.06
2019-01-02T05:25:31.392Z,18.08
2019-01-02T05:26:31.714Z,18.09
2019-01-02T05:27:31.765Z,18.1
2019-01-02T05:28:31.437Z,18.1
2019-01-02T05:29:31.491Z,18.13
2019-01-02T05:30:31.643Z,18.14
2019-01-02T05:31:31.459Z,18.16
2019-01-02T05:32:31.439Z,18.17
2019-01-02T05:33:31.674Z,18.18
2019-01-02T05:34:31.271Z,18.2
2019-01-02T05:35:31.603Z,18.21
2019-01-02T05:36:31.663Z,18.23
2019-01-02T05:37:31.302Z,18.24
2019-01-02T05:38:31.782Z,18.24
2019-01-02T05:39:31.724Z,18.26
2019-01-02T05:40:31.204Z,18.28
2019-01-02T05:41:31.720Z,18.29
2019-01-02T05:42:31.436Z,18.29
2019-01-02T05:43:31.667Z,18.31
2019-01-02T05:44:31.359Z,18.31
2019-01-02T05:45:31.520Z,18.35
2019-01-02T05:46:31.654Z,18.35
2019-01-02T05:47:31.328Z,18.37
2019-01-02T05:48:31.339Z,18.37
2019-01-02T05:49:31.419Z,18.39
2019-01-02T05:50:31.747Z,18.41
2019-01-02T05:51:31.106Z,18.42
2019-01-02T05:52:31.390Z,18.43
2019-01-02T05:53:31.281Z,18.44
2019-01-02T05:54:31.384Z,18.46
2019-01-02T05:55:31.213Z,18.48
2019-01-02T05:56:31.591Z,18.48
2019-01-02T05:57:31.373Z,18.49
2019-01-02T05:58:31.731Z,18.49
2019-01-02T05:59:31.523Z,18.51
2019-01-02T06:00:31.422Z,18.52
2019-01-02T06:01:31.551Z,18.53
2019-01-02T06:02:31.305Z,18.54
2019-01-02T06:03:31.355Z,18.55
2019-01-02T06:04:32.115Z,18.56
2019-01-02T06:05:31.494Z,18.59
2019-01-02T06:06:31.197Z,18.59
2019-01-02T06:07:32.040Z,18.6
2019-01-02T06:08:31.688Z,18.61
2019-01-02T06:09:31.216Z,18.63
2019-01-02T06:10:31.627Z,18.63
2019-01-02T06:11:31.099Z,18.66
2019-01-02T06:12:31.260Z,18.66
2019-01-02T06:13:31.483Z,18.67
2019-01-02T06:14:31.381Z,18.69
2019-01-02T06:15:31.371Z,18.7
2019-01-02T06:16:31.346Z,18.71
2019-01-02T06:17:31.285Z,18.71
2019-01-02T06:18:31.641Z,18.72
2019-01-02T06:19:31.139Z,18.74
2019-01-02T06:20:31.469Z,18.74
2019-01-02T06:21:31.250Z,18.75
2019-01-02T06:22:31.221Z,18.76
2019-01-02T06:23:31.700Z,18.76
2019-01-02T06:24:31.093Z,18.76
2019-01-02T06:25:31.209Z,18.77
2019-01-02T06:26:31.733Z,18.78
2019-01-02T06:27:31.143Z,18.78
2019-01-02T06:28:31.508Z,18.78
2019-01-02T06:29:32.046Z,18.78
2019-01-02T06:30:31.375Z,18.8
2019-01-02T06:31:31.425Z,18.8
2019-01-02T06:32:31.242Z,18.81
2019-01-02T06:33:31.557Z,18.82
2019-01-02T06:34:32.267Z,18.83
2019-01-02T06:35:31.277Z,18.83
2019-01-02T06:36:31.564Z,18.84
2019-01-02T06:37:31.494Z,18.84
2019-01-02T06:38:31.736Z,18.85
2019-01-02T06:39:31.280Z,18.85
2019-01-02T06:40:32.029Z,18.87
2019-01-02T06:41:32.173Z,18.88
2019-01-02T06:42:32.218Z,18.89
2019-01-02T06:43:31.439Z,18.88
2019-01-02T06:44:31.539Z,18.72
2019-01-02T06:45:31.252Z,18.44
2019-01-02T06:46:31.653Z,18.23
2019-01-02T06:47:31.460Z,18.08
2019-01-02T06:48:31.142Z,17.98
2019-01-02T06:49:31.565Z,18.08
2019-01-02T06:50:31.241Z,18.16
2019-01-02T06:51:31.604Z,18.23
2019-01-02T06:52:31.924Z,18.29
2019-01-02T06:53:31.137Z,18.33
2019-01-02T06:54:31.292Z,18.38
2019-01-02T06:55:31.307Z,18.41
2019-01-02T06:56:31.426Z,18.46
2019-01-02T06:57:31.587Z,18.5
2019-01-02T06:58:31.589Z,18.53
2019-01-02T06:59:31.661Z,18.56
2019-01-02T07:00:31.185Z,18.59
2019-01-02T07:01:31.224Z,18.6
2019-01-02T07:02:31.843Z,18.62
2019-01-02T07:03:31.205Z,18.64
2019-01-02T07:04:31.174Z,18.65
2019-01-02T07:05:32.295Z,18.67
2019-01-02T07:06:31.239Z,18.69
2019-01-02T07:07:31.482Z,18.7
2019-01-02T07:08:31.311Z,18.72
2019-01-02T07:09:31.231Z,18.73
2019-01-02T07:10:31.414Z,18.74
2019-01-02T07:11:31.346Z,18.75
2019-01-02T07:12:31.649Z,18.76
2019-01-02T07:13:31.650Z,18.77
2019-01-02T07:14:31.869Z,18.77
2019-01-02T07:15:32.060Z,18.78
2019-01-02T07:16:31.694Z,18.79
2019-01-02T07:17:31.189Z,18.79
2019-01-02T07:18:31.995Z,18.81
2019-01-02T07:19:31.479Z,18.81
2019-01-02T07:20:31.211Z,18.82
2019-01-02T07:21:31.756Z,18.82
2019-01-02T07:22:31.371Z,18.83
2019-01-02T07:23:31.327Z,18.83
2019-01-02T07:24:31.728Z,18.84
2019-01-02T07:25:31.664Z,18.84
2019-01-02T07:26:31.277Z,18.83
2019-01-02T07:27:31.258Z,18.84
2019-01-02T07:28:31.291Z,18.84
2019-01-02T07:29:31.265Z,18.84
2019-01-02T07:30:31.342Z,18.84
2019-01-02T07:31:32.218Z,18.84
2019-01-02T07:32:31.355Z,18.84
2019-01-02T07:33:31.125Z,18.83
2019-01-02T07:34:31.607Z,18.81
2019-01-02T07:35:31.195Z,18.81
2019-01-02T07:36:31.807Z,18.81
2019-01-02T07:37:31.419Z,18.8
2019-01-02T07:38:31.207Z,18.79
2019-01-02T07:39:32.251Z,18.78
2019-01-02T07:40:31.269Z,18.78
2019-01-02T07:41:31.642Z,18.78
2019-01-02T07:42:31.482Z,18.77
2019-01-02T07:43:31.727Z,18.75
2019-01-02T07:44:31.255Z,18.75
2019-01-02T07:45:32.182Z,18.73
2019-01-02T07:46:31.529Z,18.74
2019-01-02T07:47:32.201Z,18.73
2019-01-02T07:48:31.236Z,18.72
2019-01-02T07:49:31.451Z,18.72
2019-01-02T07:50:31.349Z,18.71
2019-01-02T07:51:31.462Z,18.71
2019-01-02T07:52:31.266Z,18.7
2019-01-02T07:53:31.259Z,18.69
2019-01-02T07:54:31.369Z,18.69
2019-01-02T07:55:31.322Z,18.67
2019-01-02T07:56:31.313Z,18.67
2019-01-02T07:57:31.240Z,18.67
2019-01-02T07:58:31.065Z,18.66
2019-01-02T07:59:31.303Z,18.66
2019-01-02T08:00:31.255Z,18.65
2019-01-02T08:01:31.248Z,18.66
2019-01-02T08:02:31.421Z,18.64
2019-01-02T08:03:31.194Z,18.62
2019-01-02T08:04:31.245Z,18.61
2019-01-02T08:05:31.257Z,18.61
2019-01-02T08:06:31.143Z,18.6
2019-01-02T08:07:31.398Z,18.6
2019-01-02T08:08:31.531Z,18.6
2019-01-02T08:09:31.454Z,18.59
2019-01-02T08:10:31.261Z,18.58
2019-01-02T08:11:31.194Z,18.58
2019-01-02T08:12:31.235Z,18.57
2019-01-02T08:13:31.270Z,18.55
2019-01-02T08:14:31.418Z,18.55
2019-01-02T08:15:31.877Z,18.55
2019-01-02T08:16:31.267Z,18.54
2019-01-02T08:17:31.910Z,18.54
2019-01-02T08:18:31.377Z,18.53
2019-01-02T08:19:31.090Z,18.53
2019-01-02T08:20:31.464Z,18.53
2019-01-02T08:21:31.405Z,18.52
2019-01-02T08:22:31.254Z,18.51
2019-01-02T08:23:31.665Z,18.5
2019-01-02T08:24:31.119Z,18.49
2019-01-02T08:25:32.089Z,18.48
2019-01-02T08:26:31.316Z,18.48
2019-01-02T08:27:31.451Z,18.48
2019-01-02T08:28:32.077Z,18.47
2019-01-02T08:29:31.175Z,18.46
2019-01-02T08:30:31.695Z,18.45
2019-01-02T08:31:31.971Z,18.44
2019-01-02T08:32:31.379Z,18.44
2019-01-02T08:33:31.812Z,18.44
2019-01-02T08:34:31.262Z,18.43
2019-01-02T08:35:31.046Z,18.41
2019-01-02T08:36:31.208Z,18.41
2019-01-02T08:37:31.363Z,18.41
2019-01-02T08:38:31.325Z,18.41
2019-01-02T08:39:32.055Z,18.41
2019-01-02T08:40:32.058Z,18.41
2019-01-02T08:41:31.959Z,18.41
2019-01-02T08:42:31.354Z,18.41
2019-01-02T08:43:31.725Z,18.42
2019-01-02T08:44:32.984Z,18.42
2019-01-02T08:45:31.540Z,18.43
2019-01-02T08:46:31.289Z,18.43
2019-01-02T08:47:31.403Z,18.45
2019-01-02T08:48:31.736Z,18.47
2019-01-02T08:49:31.678Z,18.48
2019-01-02T08:50:31.543Z,18.49
2019-01-02T08:51:31.429Z,18.51
2019-01-02T08:52:31.476Z,18.53
2019-01-02T08:53:31.091Z,18.55
2019-01-02T08:54:31.202Z,18.56
2019-01-02T08:55:31.553Z,18.57
2019-01-02T08:56:31.094Z,18.6
2019-01-02T08:57:31.411Z,18.6
2019-01-02T08:58:32.673Z,18.62
2019-01-02T08:59:31.262Z,18.64
2019-01-02T09:00:31.531Z,18.64
2019-01-02T09:01:31.041Z,18.66
2019-01-02T09:02:31.115Z,18.66
2019-01-02T09:03:31.258Z,18.67
2019-01-02T09:04:31.489Z,18.68
2019-01-02T09:05:31.470Z,18.69
2019-01-02T09:06:31.365Z,18.69
2019-01-02T09:07:31.200Z,18.7
2019-01-02T09:08:31.324Z,18.72
2019-01-02T09:09:31.567Z,18.72
2019-01-02T09:10:31.589Z,18.71
2019-01-02T09:11:31.219Z,18.72
2019-01-02T09:12:31.286Z,18.75
2019-01-02T09:13:31.146Z,18.76
2019-01-02T09:14:31.252Z,18.77
2019-01-02T09:15:31.411Z,18.77
2019-01-02T09:16:31.236Z,18.79
2019-01-02T09:17:31.250Z,18.81
2019-01-02T09:18:31.191Z,18.82
2019-01-02T09:19:31.460Z,18.83
2019-01-02T09:20:31.440Z,18.84
2019-01-02T09:21:31.230Z,18.88
2019-01-02T09:22:31.184Z,18.9
2019-01-02T09:23:31.548Z,18.93
2019-01-02T09:24:31.265Z,18.97
2019-01-02T09:25:31.847Z,18.99
2019-01-02T09:26:31.129Z,18.99
2019-01-02T09:27:31.304Z,18.99
2019-01-02T09:28:31.314Z,19
2019-01-02T09:29:32.315Z,19.02
2019-01-02T09:30:31.293Z,19.03
2019-01-02T09:31:31.742Z,19.08
2019-01-02T09:32:31.123Z,19.09
2019-01-02T09:33:31.188Z,19.11
2019-01-02T09:34:31.164Z,19.13
2019-01-02T09:35:31.558Z,19.16
2019-01-02T09:36:31.680Z,19.14
2019-01-02T09:37:31.183Z,19.17
2019-01-02T09:38:31.380Z,19.21
2019-01-02T09:39:31.371Z,19.21
2019-01-02T09:40:31.241Z,19.22
2019-01-02T09:41:31.206Z,19.22
2019-01-02T09:42:31.275Z,19.28
2019-01-02T09:43:31.117Z,19.27
2019-01-02T09:44:31.320Z,19.27
2019-01-02T09:45:31.401Z,19.27
2019-01-02T09:46:31.890Z,19.28
2019-01-02T09:47:32.467Z,19.3
2019-01-02T09:48:31.076Z,19.3
2019-01-02T09:49:31.207Z,19.32
2019-01-02T09:50:31.326Z,19.32
2019-01-02T09:51:31.045Z,19.33
2019-01-02T09:52:31.483Z,19.34
2019-01-02T09:53:31.077Z,19.34
2019-01-02T09:54:31.839Z,19.37
2019-01-02T09:55:31.219Z,19.41
2019-01-02T09:56:31.276Z,19.44
2019-01-02T09:57:31.412Z,19.45
2019-01-02T09:58:31.127Z,19.49
2019-01-02T09:59:31.248Z,19.51
2019-01-02T10:00:31.140Z,19.51
2019-01-02T10:01:31.087Z,19.53
2019-01-02T10:02:31.317Z,19.53
2019-01-02T10:03:31.312Z,19.53
2019-01-02T10:04:31.711Z,19.57
2019-01-02T10:05:31.651Z,19.58
2019-01-02T10:06:31.349Z,19.61
2019-01-02T10:07:31.172Z,19.63
2019-01-02T10:08:31.303Z,19.67
2019-01-02T10:09:31.685Z,19.61
2019-01-02T10:10:31.619Z,19.63
2019-01-02T10:11:31.325Z,19.62
2019-01-02T10:12:31.203Z,19.6
2019-01-02T10:13:31.316Z,19.61
2019-01-02T10:14:31.426Z,19.62
2019-01-02T10:15:31.209Z,19.64
2019-01-02T10:16:31.708Z,19.64
2019-01-02T10:17:31.455Z,19.63
2019-01-02T10:18:31.759Z,19.66
2019-01-02T10:19:31.847Z,19.67
2019-01-02T10:20:31.972Z,19.68
2019-01-02T10:21:31.165Z,19.7
2019-01-02T10:22:31.292Z,19.7
2019-01-02T10:23:31.486Z,19.73
2019-01-02T10:24:31.222Z,19.73
2019-01-02T10:25:31.420Z,19.73
2019-01-02T10:26:31.498Z,19.75
2019-01-02T10:27:31.207Z,19.78
2019-01-02T10:28:31.525Z,19.79
2019-01-02T10:29:31.591Z,19.79
2019-01-02T10:30:31.668Z,19.78
2019-01-02T10:31:31.237Z,19.78
2019-01-02T10:32:31.640Z,19.77
2019-01-02T10:33:32.233Z,19.77
2019-01-02T10:34:31.118Z,19.76
2019-01-02T10:35:31.278Z,19.77
2019-01-02T10:36:31.326Z,19.78
2019-01-02T10:37:31.509Z,19.78
2019-01-02T10:38:31.678Z,19.79
2019-01-02T10:39:31.394Z,19.79
2019-01-02T10:40:31.698Z,19.8
2019-01-02T10:41:31.710Z,19.8
2019-01-02T10:42:31.433Z,19.79
2019-01-02T10:43:31.131Z,19.79
2019-01-02T10:44:31.268Z,19.8
2019-01-02T10:45:31.017Z,19.82
2019-01-02T10:46:32.058Z,19.84
2019-01-02T10:47:31.255Z,19.81
2019-01-02T10:48:31.359Z,19.83
2019-01-02T10:49:31.568Z,19.82
2019-01-02T10:50:31.578Z,19.81
2019-01-02T10:51:31.025Z,19.83
2019-01-02T10:52:31.589Z,19.82
2019-01-02T10:53:31.215Z,19.81
2019-01-02T10:54:31.213Z,19.81
2019-01-02T10:55:31.000Z,19.81
2019-01-02T10:56:31.055Z,19.81
2019-01-02T10:57:31.173Z,19.81
2019-01-02T10:58:36.942Z,19.82
2019-01-02T10:59:31.107Z,19.82
2019-01-02T11:00:31.462Z,19.84
2019-01-02T11:01:31.389Z,19.85
2019-01-02T11:02:31.376Z,19.86
2019-01-02T11:03:31.198Z,19.87
2019-01-02T11:04:31.214Z,19.88
2019-01-02T11:05:31.260Z,19.86
2019-01-02T11:06:32.006Z,19.85
2019-01-02T11:07:32.076Z,19.84
2019-01-02T11:08:32.002Z,19.83
2019-01-02T11:09:31.614Z,19.82
2019-01-02T11:10:32.145Z,19.82
2019-01-02T11:11:31.115Z,19.82
2019-01-02T11:12:31.225Z,19.83
2019-01-02T11:13:31.227Z,19.84
2019-01-02T11:14:31.122Z,19.85
2019-01-02T11:15:31.226Z,19.85
2019-01-02T11:16:31.442Z,19.85
2019-01-02T11:17:31.081Z,19.84
2019-01-02T11:18:31.231Z,19.83
2019-01-02T11:19:32.656Z,19.82
2019-01-02T11:20:31.881Z,19.82
2019-01-02T11:21:31.268Z,19.81
2019-01-02T11:22:31.374Z,19.81
2019-01-02T11:23:31.165Z,19.81
2019-01-02T11:24:31.491Z,19.81
2019-01-02T11:25:31.401Z,19.81
2019-01-02T11:26:31.436Z,19.8
2019-01-02T11:27:30.958Z,19.79
2019-01-02T11:28:31.032Z,19.78
2019-01-02T11:29:31.069Z,19.78
2019-01-02T11:30:31.348Z,19.77
2019-01-02T11:31:31.088Z,19.76
2019-01-02T11:32:31.183Z,19.75
2019-01-02T11:33:31.807Z,19.75
2019-01-02T11:34:31.494Z,19.75
2019-01-02T11:35:31.588Z,19.74
2019-01-02T11:36:31.110Z,19.74
2019-01-02T11:37:31.017Z,19.72
2019-01-02T11:38:31.422Z,19.72
2019-01-02T11:39:31.360Z,19.7
2019-01-02T11:40:31.025Z,19.7
2019-01-02T11:41:31.553Z,19.69
2019-01-02T11:42:31.559Z,19.69
2019-01-02T11:43:31.017Z,19.69
2019-01-02T11:44:31.203Z,19.67
2019-01-02T11:45:31.443Z,19.64
2019-01-02T11:46:31.061Z,19.63
2019-01-02T11:47:31.099Z,19.63
2019-01-02T11:48:31.375Z,19.62
2019-01-02T11:49:31.136Z,19.6
2019-01-02T11:50:31.396Z,19.58
2019-01-02T11:51:31.544Z,19.58
2019-01-02T11:52:31.993Z,19.57
2019-01-02T11:53:31.936Z,19.57
2019-01-02T11:54:31.053Z,19.55
2019-01-02T11:55:31.208Z,19.53
2019-01-02T11:56:31.205Z,19.54
2019-01-02T11:57:31.277Z,19.53
2019-01-02T11:58:31.202Z,19.51
2019-01-02T11:59:31.670Z,19.5
2019-01-02T12:00:31.483Z,19.49
2019-01-02T12:01:31.146Z,19.48
2019-01-02T12:02:34.509Z,19.46
2019-01-02T12:03:31.965Z,19.45
2019-01-02T12:04:31.389Z,19.45
2019-01-02T12:05:31.460Z,19.43
2019-01-02T12:06:31.520Z,19.43
2019-01-02T12:07:31.649Z,19.41
2019-01-02T12:08:31.321Z,19.39
2019-01-02T12:09:31.657Z,19.39
2019-01-02T12:10:31.419Z,19.38
2019-01-02T12:11:31.128Z,19.36
2019-01-02T12:12:31.137Z,19.35
2019-01-02T12:13:31.659Z,19.34
2019-01-02T12:14:31.370Z,19.33
2019-01-02T12:15:31.159Z,19.33
2019-01-02T12:16:31.229Z,19.33
2019-01-02T12:17:31.135Z,19.31
2019-01-02T12:18:31.509Z,19.3
2019-01-02T12:19:31.365Z,19.29
2019-01-02T12:20:31.351Z,19.28
2019-01-02T12:21:31.236Z,19.27
2019-01-02T12:22:30.971Z,19.27
2019-01-02T12:23:31.065Z,19.26
2019-01-02T12:24:31.242Z,19.25
2019-01-02T12:25:31.126Z,19.24
2019-01-02T12:26:31.440Z,19.23
2019-01-02T12:27:31.576Z,19.22
2019-01-02T12:28:31.507Z,19.21
2019-01-02T12:29:31.267Z,19.2
2019-01-02T12:30:32.145Z,19.19
2019-01-02T12:31:31.473Z,19.18
2019-01-02T12:32:31.552Z,19.16
2019-01-02T12:33:31.400Z,19.16
2019-01-02T12:34:31.033Z,19.15
2019-01-02T12:35:31.419Z,19.15
2019-01-02T12:36:31.174Z,19.14
2019-01-02T12:37:31.508Z,19.13
2019-01-02T12:38:31.070Z,19.14
2019-01-02T12:39:31.278Z,19.13
2019-01-02T12:40:31.614Z,19.12
2019-01-02T12:41:31.261Z,19.11
2019-01-02T12:42:30.968Z,19.1
2019-01-02T12:43:31.485Z,19.1
2019-01-02T12:44:31.277Z,19.1
2019-01-02T12:45:31.135Z,19.09
2019-01-02T12:46:31.292Z,19.08
2019-01-02T12:47:31.374Z,19.07
2019-01-02T12:48:31.279Z,19.07
2019-01-02T12:49:31.509Z,19.06
2019-01-02T12:50:31.353Z,19.06
2019-01-02T12:51:31.072Z,19.06
2019-01-02T12:52:31.200Z,19.05
2019-01-02T12:53:31.306Z,19.05
2019-01-02T12:54:31.497Z,19.05
2019-01-02T12:55:31.457Z,19.04